sensor_id;sensor_type;location;lat;lon;timestamp;pressure;altitude;pressure_sealevel;temperature;humidity
69145;BME280;56251;50.324;17.574;2022-07-15T00:00:11;101687.97;;;19.25;83.05
69145;BME280;56251;50.324;17.574;2022-07-15T00:01:27;101688.02;;;19.17;83.25
69145;BME280;56251;50.324;17.574;2022-07-15T00:03:21;101688.67;;;19.09;83.50
69145;BME280;56251;50.324;17.574;2022-07-15T00:04:35;101688.27;;;19.07;83.63
69145;BME280;56251;50.324;17.574;2022-07-15T00:06:30;101690.98;;;19.05;83.58
69145;BME280;56251;50.324;17.574;2022-07-15T00:07:44;101688.52;;;18.97;83.78
69145;BME280;56251;50.324;17.574;2022-07-15T00:09:38;101686.82;;;18.91;83.82
69145;BME280;56251;50.324;17.574;2022-07-15T00:10:54;101687.49;;;18.85;83.79
69145;BME280;56251;50.324;17.574;2022-07-15T00:13:22;101693.68;;;18.80;83.58
69145;BME280;56251;50.324;17.574;2022-07-15T00:14:02;101693.34;;;18.76;83.61
69145;BME280;56251;50.324;17.574;2022-07-15T00:16:30;101695.30;;;18.78;83.39
69145;BME280;56251;50.324;17.574;2022-07-15T00:17:09;101697.11;;;18.74;83.38
69145;BME280;56251;50.324;17.574;2022-07-15T00:19:37;101700.85;;;18.73;83.18
69145;BME280;56251;50.324;17.574;2022-07-15T00:20:23;101703.84;;;18.75;83.08
69145;BME280;56251;50.324;17.574;2022-07-15T00:22:48;101705.20;;;18.66;83.21
69145;BME280;56251;50.324;17.574;2022-07-15T00:23:29;101706.73;;;18.66;83.20
69145;BME280;56251;50.324;17.574;2022-07-15T00:25:55;101712.34;;;18.56;83.35
69145;BME280;56251;50.324;17.574;2022-07-15T00:26:36;101712.84;;;18.57;83.22
69145;BME280;56251;50.324;17.574;2022-07-15T00:29:02;101718.69;;;18.51;83.09
69145;BME280;56251;50.324;17.574;2022-07-15T00:29:43;101717.03;;;18.49;83.19
69145;BME280;56251;50.324;17.574;2022-07-15T00:32:09;101723.65;;;18.48;83.29
69145;BME280;56251;50.324;17.574;2022-07-15T00:32:50;101722.73;;;18.46;83.33
69145;BME280;56251;50.324;17.574;2022-07-15T00:35:19;101723.62;;;18.51;83.43
69145;BME280;56251;50.324;17.574;2022-07-15T00:35:59;101725.21;;;18.53;83.00
69145;BME280;56251;50.324;17.574;2022-07-15T00:38:28;101723.94;;;18.50;82.86
69145;BME280;56251;50.324;17.574;2022-07-15T00:39:10;101727.97;;;18.51;82.71
69145;BME280;56251;50.324;17.574;2022-07-15T00:41:40;101727.50;;;18.47;82.69
69145;BME280;56251;50.324;17.574;2022-07-15T00:42:17;101733.22;;;18.52;82.43
69145;BME280;56251;50.324;17.574;2022-07-15T00:44:50;101731.77;;;18.49;82.03
69145;BME280;56251;50.324;17.574;2022-07-15T00:45:52;101732.58;;;18.45;82.02
69145;BME280;56251;50.324;17.574;2022-07-15T00:47:57;101730.12;;;18.42;81.89
69145;BME280;56251;50.324;17.574;2022-07-15T00:48:59;101734.23;;;18.41;81.88
69145;BME280;56251;50.324;17.574;2022-07-15T00:51:03;101739.35;;;18.39;81.69
69145;BME280;56251;50.324;17.574;2022-07-15T00:52:06;101738.66;;;18.38;81.56
69145;BME280;56251;50.324;17.574;2022-07-15T00:54:12;101739.16;;;18.29;81.36
69145;BME280;56251;50.324;17.574;2022-07-15T00:55:13;101741.48;;;18.25;81.48
69145;BME280;56251;50.324;17.574;2022-07-15T00:57:19;101739.99;;;18.24;81.15
69145;BME280;56251;50.324;17.574;2022-07-15T00:58:24;101745.08;;;18.23;81.19
69145;BME280;56251;50.324;17.574;2022-07-15T01:00:27;101748.37;;;18.16;81.07
69145;BME280;56251;50.324;17.574;2022-07-15T01:01:35;101748.98;;;18.11;81.27
69145;BME280;56251;50.324;17.574;2022-07-15T01:03:34;101750.38;;;18.07;81.19
69145;BME280;56251;50.324;17.574;2022-07-15T01:04:41;101751.20;;;18.02;81.12
69145;BME280;56251;50.324;17.574;2022-07-15T01:06:42;101753.05;;;17.94;81.17
69145;BME280;56251;50.324;17.574;2022-07-15T01:07:49;101753.73;;;17.95;81.13
69145;BME280;56251;50.324;17.574;2022-07-15T01:09:48;101757.34;;;17.92;80.86
69145;BME280;56251;50.324;17.574;2022-07-15T01:10:56;101761.23;;;17.86;80.76
69145;BME280;56251;50.324;17.574;2022-07-15T01:12:55;101770.34;;;17.83;80.63
69145;BME280;56251;50.324;17.574;2022-07-15T01:14:03;101769.52;;;17.81;80.52
69145;BME280;56251;50.324;17.574;2022-07-15T01:16:07;101769.91;;;17.74;80.60
69145;BME280;56251;50.324;17.574;2022-07-15T01:17:15;101768.34;;;17.70;80.61
69145;BME280;56251;50.324;17.574;2022-07-15T01:19:14;101773.02;;;17.67;80.51
69145;BME280;56251;50.324;17.574;2022-07-15T01:20:21;101769.27;;;17.66;80.52
69145;BME280;56251;50.324;17.574;2022-07-15T01:22:20;101769.54;;;17.57;80.73
69145;BME280;56251;50.324;17.574;2022-07-15T01:23:28;101766.22;;;17.54;80.73
69145;BME280;56251;50.324;17.574;2022-07-15T01:25:27;101774.77;;;17.45;80.79
69145;BME280;56251;50.324;17.574;2022-07-15T01:26:36;101772.12;;;17.40;80.87
69145;BME280;56251;50.324;17.574;2022-07-15T01:28:34;101771.02;;;17.34;81.04
69145;BME280;56251;50.324;17.574;2022-07-15T01:29:42;101766.87;;;17.29;81.16
69145;BME280;56251;50.324;17.574;2022-07-15T01:31:40;101768.45;;;17.27;81.15
69145;BME280;56251;50.324;17.574;2022-07-15T01:32:49;101768.05;;;17.26;80.95
69145;BME280;56251;50.324;17.574;2022-07-15T01:34:46;101767.57;;;17.22;80.82
69145;BME280;56251;50.324;17.574;2022-07-15T01:35:56;101773.99;;;17.23;80.64
69145;BME280;56251;50.324;17.574;2022-07-15T01:37:54;101774.68;;;17.14;80.57
69145;BME280;56251;50.324;17.574;2022-07-15T01:39:02;101776.63;;;17.11;80.87
69145;BME280;56251;50.324;17.574;2022-07-15T01:41:01;101781.15;;;17.04;80.94
69145;BME280;56251;50.324;17.574;2022-07-15T01:42:09;101778.08;;;17.01;81.06
69145;BME280;56251;50.324;17.574;2022-07-15T01:44:11;101789.34;;;16.99;81.03
69145;BME280;56251;50.324;17.574;2022-07-15T01:45:16;101784.28;;;16.94;81.09
69145;BME280;56251;50.324;17.574;2022-07-15T01:47:15;101788.92;;;16.92;80.43
69145;BME280;56251;50.324;17.574;2022-07-15T01:48:22;101789.22;;;16.84;80.55
69145;BME280;56251;50.324;17.574;2022-07-15T01:50:21;101790.40;;;16.86;80.62
69145;BME280;56251;50.324;17.574;2022-07-15T01:52:07;101790.48;;;16.82;80.17
69145;BME280;56251;50.324;17.574;2022-07-15T01:53:28;101786.80;;;16.73;80.37
69145;BME280;56251;50.324;17.574;2022-07-15T01:55:15;101787.91;;;16.67;80.43
69145;BME280;56251;50.324;17.574;2022-07-15T01:56:37;101792.23;;;16.63;80.64
69145;BME280;56251;50.324;17.574;2022-07-15T01:58:21;101794.94;;;16.53;80.61
69145;BME280;56251;50.324;17.574;2022-07-15T01:59:43;101796.82;;;16.53;80.63
69145;BME280;56251;50.324;17.574;2022-07-15T02:01:28;101800.16;;;16.50;80.91
69145;BME280;56251;50.324;17.574;2022-07-15T02:02:49;101799.18;;;16.42;80.84
69145;BME280;56251;50.324;17.574;2022-07-15T02:04:35;101798.45;;;16.42;81.02
69145;BME280;56251;50.324;17.574;2022-07-15T02:05:56;101803.73;;;16.44;80.81
69145;BME280;56251;50.324;17.574;2022-07-15T02:07:42;101812.77;;;16.37;80.84
69145;BME280;56251;50.324;17.574;2022-07-15T02:09:02;101821.70;;;16.37;80.82
69145;BME280;56251;50.324;17.574;2022-07-15T02:10:49;101820.94;;;16.33;80.71
69145;BME280;56251;50.324;17.574;2022-07-15T02:12:09;101828.77;;;16.33;80.50
69145;BME280;56251;50.324;17.574;2022-07-15T02:13:56;101828.91;;;16.27;80.54
69145;BME280;56251;50.324;17.574;2022-07-15T02:15:15;101833.15;;;16.29;80.37
69145;BME280;56251;50.324;17.574;2022-07-15T02:17:10;101833.77;;;16.20;80.18
69145;BME280;56251;50.324;17.574;2022-07-15T02:18:22;101836.15;;;16.20;80.06
69145;BME280;56251;50.324;17.574;2022-07-15T02:20:16;101836.09;;;16.19;79.82
69145;BME280;56251;50.324;17.574;2022-07-15T02:21:29;101837.16;;;16.16;79.78
69145;BME280;56251;50.324;17.574;2022-07-15T02:23:23;101841.70;;;16.16;79.66
69145;BME280;56251;50.324;17.574;2022-07-15T02:24:35;101842.66;;;16.10;79.61
69145;BME280;56251;50.324;17.574;2022-07-15T02:26:29;101843.20;;;15.99;79.57
69145;BME280;56251;50.324;17.574;2022-07-15T02:27:41;101846.46;;;16.01;79.40
69145;BME280;56251;50.324;17.574;2022-07-15T02:29:36;101844.61;;;15.97;79.44
69145;BME280;56251;50.324;17.574;2022-07-15T02:30:50;101847.65;;;15.95;79.35
69145;BME280;56251;50.324;17.574;2022-07-15T02:32:43;101852.33;;;15.95;79.47
69145;BME280;56251;50.324;17.574;2022-07-15T02:33:57;101844.25;;;15.90;79.53
69145;BME280;56251;50.324;17.574;2022-07-15T02:35:49;101845.98;;;15.88;79.29
69145;BME280;56251;50.324;17.574;2022-07-15T02:37:09;101845.89;;;15.85;79.46
69145;BME280;56251;50.324;17.574;2022-07-15T02:38:57;101850.38;;;15.81;79.38
69145;BME280;56251;50.324;17.574;2022-07-15T02:40:17;101856.45;;;15.79;79.29
69145;BME280;56251;50.324;17.574;2022-07-15T02:42:05;101855.79;;;15.75;79.35
69145;BME280;56251;50.324;17.574;2022-07-15T02:43:24;101867.02;;;15.74;79.38
69145;BME280;56251;50.324;17.574;2022-07-15T02:45:12;101864.33;;;15.74;79.23
69145;BME280;56251;50.324;17.574;2022-07-15T02:46:32;101871.30;;;15.79;78.93
69145;BME280;56251;50.324;17.574;2022-07-15T02:48:18;101873.95;;;15.74;78.61
69145;BME280;56251;50.324;17.574;2022-07-15T02:49:41;101866.04;;;15.73;78.52
69145;BME280;56251;50.324;17.574;2022-07-15T02:51:25;101871.97;;;15.69;78.78
69145;BME280;56251;50.324;17.574;2022-07-15T02:52:49;101875.04;;;15.70;78.68
69145;BME280;56251;50.324;17.574;2022-07-15T02:54:31;101880.57;;;15.71;78.57
69145;BME280;56251;50.324;17.574;2022-07-15T02:56:02;101877.70;;;15.65;78.64
69145;BME280;56251;50.324;17.574;2022-07-15T02:57:37;101877.47;;;15.62;78.49
69145;BME280;56251;50.324;17.574;2022-07-15T02:59:08;101879.20;;;15.62;78.39
69145;BME280;56251;50.324;17.574;2022-07-15T03:00:44;101884.62;;;15.58;78.18
69145;BME280;56251;50.324;17.574;2022-07-15T03:02:18;101886.09;;;15.54;78.29
69145;BME280;56251;50.324;17.574;2022-07-15T03:03:51;101893.32;;;15.52;78.38
69145;BME280;56251;50.324;17.574;2022-07-15T03:05:25;101892.03;;;15.45;77.98
69145;BME280;56251;50.324;17.574;2022-07-15T03:06:59;101891.82;;;15.40;78.28
69145;BME280;56251;50.324;17.574;2022-07-15T03:08:31;101894.79;;;15.20;78.59
69145;BME280;56251;50.324;17.574;2022-07-15T03:10:08;101895.65;;;15.27;78.70
69145;BME280;56251;50.324;17.574;2022-07-15T03:11:38;101900.07;;;15.32;78.68
69145;BME280;56251;50.324;17.574;2022-07-15T03:13:14;101908.27;;;15.20;78.98
69145;BME280;56251;50.324;17.574;2022-07-15T03:14:45;101911.30;;;15.24;78.87
69145;BME280;56251;50.324;17.574;2022-07-15T03:16:21;101914.17;;;15.26;78.82
69145;BME280;56251;50.324;17.574;2022-07-15T03:17:57;101914.70;;;15.33;78.62
69145;BME280;56251;50.324;17.574;2022-07-15T03:19:28;101915.04;;;15.33;78.37
69145;BME280;56251;50.324;17.574;2022-07-15T03:21:04;101915.25;;;15.37;78.11
69145;BME280;56251;50.324;17.574;2022-07-15T03:22:34;101919.27;;;15.38;78.08
69145;BME280;56251;50.324;17.574;2022-07-15T03:24:14;101919.27;;;15.38;77.96
69145;BME280;56251;50.324;17.574;2022-07-15T03:25:41;101923.42;;;15.42;77.77
69145;BME280;56251;50.324;17.574;2022-07-15T03:27:19;101923.49;;;15.44;77.57
69145;BME280;56251;50.324;17.574;2022-07-15T03:28:47;101923.51;;;15.49;77.19
69145;BME280;56251;50.324;17.574;2022-07-15T03:30:30;101928.85;;;15.45;76.92
69145;BME280;56251;50.324;17.574;2022-07-15T03:31:53;101932.10;;;15.42;76.88
69145;BME280;56251;50.324;17.574;2022-07-15T03:33:36;101936.20;;;15.43;76.67
69145;BME280;56251;50.324;17.574;2022-07-15T03:35:01;101942.28;;;15.40;76.91
69145;BME280;56251;50.324;17.574;2022-07-15T03:36:43;101939.04;;;15.45;76.88
69145;BME280;56251;50.324;17.574;2022-07-15T03:38:14;101946.52;;;15.43;76.60
69145;BME280;56251;50.324;17.574;2022-07-15T03:39:52;101949.47;;;15.44;76.76
69145;BME280;56251;50.324;17.574;2022-07-15T03:41:21;101945.16;;;15.48;76.40
69145;BME280;56251;50.324;17.574;2022-07-15T03:42:58;101950.55;;;15.43;76.50
69145;BME280;56251;50.324;17.574;2022-07-15T03:44:29;101953.38;;;15.50;76.37
69145;BME280;56251;50.324;17.574;2022-07-15T03:46:08;101956.91;;;15.49;76.40
69145;BME280;56251;50.324;17.574;2022-07-15T03:47:39;101954.52;;;15.57;75.93
69145;BME280;56251;50.324;17.574;2022-07-15T03:49:18;101960.17;;;15.55;75.31
69145;BME280;56251;50.324;17.574;2022-07-15T03:50:46;101960.56;;;15.57;74.87
69145;BME280;56251;50.324;17.574;2022-07-15T03:52:24;101962.27;;;15.64;74.35
69145;BME280;56251;50.324;17.574;2022-07-15T03:53:53;101960.09;;;15.68;74.49
69145;BME280;56251;50.324;17.574;2022-07-15T03:55:31;101963.34;;;15.72;74.04
69145;BME280;56251;50.324;17.574;2022-07-15T03:57:02;101962.57;;;15.73;73.12
69145;BME280;56251;50.324;17.574;2022-07-15T03:58:38;101961.47;;;15.68;73.32
69145;BME280;56251;50.324;17.574;2022-07-15T04:00:12;101968.96;;;15.73;73.54
69145;BME280;56251;50.324;17.574;2022-07-15T04:01:44;101967.66;;;15.76;73.10
69145;BME280;56251;50.324;17.574;2022-07-15T04:03:18;101972.86;;;15.83;72.26
69145;BME280;56251;50.324;17.574;2022-07-15T04:04:50;101974.82;;;15.83;71.93
69145;BME280;56251;50.324;17.574;2022-07-15T04:06:28;101975.73;;;15.69;71.61
69145;BME280;56251;50.324;17.574;2022-07-15T04:07:58;101979.39;;;15.65;72.15
69145;BME280;56251;50.324;17.574;2022-07-15T04:09:37;101979.05;;;15.67;72.39
69145;BME280;56251;50.324;17.574;2022-07-15T04:11:04;101983.38;;;15.75;72.34
69145;BME280;56251;50.324;17.574;2022-07-15T04:12:44;101986.40;;;15.80;72.66
69145;BME280;56251;50.324;17.574;2022-07-15T04:14:17;101991.58;;;15.86;72.66
69145;BME280;56251;50.324;17.574;2022-07-15T04:15:53;101991.09;;;15.92;72.23
69145;BME280;56251;50.324;17.574;2022-07-15T04:17:24;101993.45;;;15.96;72.10
69145;BME280;56251;50.324;17.574;2022-07-15T04:19:00;101997.22;;;15.91;72.11
69145;BME280;56251;50.324;17.574;2022-07-15T04:20:31;101998.11;;;16.00;72.13
69145;BME280;56251;50.324;17.574;2022-07-15T04:22:07;101997.71;;;16.05;72.16
69145;BME280;56251;50.324;17.574;2022-07-15T04:23:38;101999.15;;;16.11;71.71
69145;BME280;56251;50.324;17.574;2022-07-15T04:25:15;102000.48;;;16.09;71.00
69145;BME280;56251;50.324;17.574;2022-07-15T04:26:44;101999.20;;;16.17;71.29
69145;BME280;56251;50.324;17.574;2022-07-15T04:28:22;102005.06;;;16.21;71.35
69145;BME280;56251;50.324;17.574;2022-07-15T04:29:50;102005.68;;;16.30;70.58
69145;BME280;56251;50.324;17.574;2022-07-15T04:31:28;102015.70;;;16.30;70.60
69145;BME280;56251;50.324;17.574;2022-07-15T04:32:57;102011.44;;;16.33;70.59
69145;BME280;56251;50.324;17.574;2022-07-15T04:34:41;102015.00;;;16.36;70.13
69145;BME280;56251;50.324;17.574;2022-07-15T04:36:03;102018.27;;;16.43;69.60
69145;BME280;56251;50.324;17.574;2022-07-15T04:37:51;102019.80;;;16.71;69.13
69145;BME280;56251;50.324;17.574;2022-07-15T04:39:10;102014.88;;;16.80;68.65
69145;BME280;56251;50.324;17.574;2022-07-15T04:40:57;102017.40;;;16.86;68.20
69145;BME280;56251;50.324;17.574;2022-07-15T04:42:16;102016.07;;;16.99;67.96
69145;BME280;56251;50.324;17.574;2022-07-15T04:44:05;102013.40;;;17.12;67.71
69145;BME280;56251;50.324;17.574;2022-07-15T04:45:23;102017.71;;;17.24;67.24
69145;BME280;56251;50.324;17.574;2022-07-15T04:47:12;102016.30;;;17.33;65.04
69145;BME280;56251;50.324;17.574;2022-07-15T04:48:29;102016.45;;;17.40;64.76
69145;BME280;56251;50.324;17.574;2022-07-15T04:50:21;102017.67;;;17.50;64.48
69145;BME280;56251;50.324;17.574;2022-07-15T04:52:16;102019.52;;;17.41;64.61
69145;BME280;56251;50.324;17.574;2022-07-15T04:53:53;102017.34;;;17.38;64.68
69145;BME280;56251;50.324;17.574;2022-07-15T04:55:24;102019.70;;;17.39;63.91
69145;BME280;56251;50.324;17.574;2022-07-15T04:57:00;102019.48;;;17.36;63.91
69145;BME280;56251;50.324;17.574;2022-07-15T04:58:34;102023.28;;;17.62;63.99
69145;BME280;56251;50.324;17.574;2022-07-15T05:00:08;102022.17;;;17.78;62.12
69145;BME280;56251;50.324;17.574;2022-07-15T05:01:40;102021.25;;;17.89;61.74
69145;BME280;56251;50.324;17.574;2022-07-15T05:03:18;102025.73;;;18.07;61.28
69145;BME280;56251;50.324;17.574;2022-07-15T05:04:47;102029.81;;;18.22;61.21
69145;BME280;56251;50.324;17.574;2022-07-15T05:06:29;102026.59;;;18.69;59.27
69145;BME280;56251;50.324;17.574;2022-07-15T05:07:53;102026.84;;;19.35;57.60
69145;BME280;56251;50.324;17.574;2022-07-15T05:09:36;102029.84;;;20.18;54.66
69145;BME280;56251;50.324;17.574;2022-07-15T05:10:59;102029.97;;;20.88;52.58
69145;BME280;56251;50.324;17.574;2022-07-15T05:12:43;102029.18;;;21.65;50.93
69145;BME280;56251;50.324;17.574;2022-07-15T05:14:13;102022.93;;;22.47;49.00
69145;BME280;56251;50.324;17.574;2022-07-15T05:15:49;102029.85;;;23.03;45.77
69145;BME280;56251;50.324;17.574;2022-07-15T05:17:24;102031.02;;;23.58;43.83
69145;BME280;56251;50.324;17.574;2022-07-15T05:18:56;102033.26;;;24.10;43.42
69145;BME280;56251;50.324;17.574;2022-07-15T05:20:32;102036.70;;;24.51;41.03
69145;BME280;56251;50.324;17.574;2022-07-15T05:22:04;102035.36;;;24.57;40.30
69145;BME280;56251;50.324;17.574;2022-07-15T05:23:38;102031.66;;;25.08;39.98
69145;BME280;56251;50.324;17.574;2022-07-15T05:25:15;102038.31;;;25.70;38.97
69145;BME280;56251;50.324;17.574;2022-07-15T05:26:46;102038.30;;;25.99;37.62
69145;BME280;56251;50.324;17.574;2022-07-15T05:28:20;102036.18;;;26.34;36.83
69145;BME280;56251;50.324;17.574;2022-07-15T05:29:55;102039.10;;;26.62;35.96
69145;BME280;56251;50.324;17.574;2022-07-15T05:31:29;102046.27;;;26.96;35.04
69145;BME280;56251;50.324;17.574;2022-07-15T05:33:02;102041.17;;;26.62;35.29
69145;BME280;56251;50.324;17.574;2022-07-15T05:34:37;102044.81;;;26.55;36.08
69145;BME280;56251;50.324;17.574;2022-07-15T05:36:12;102046.61;;;26.62;36.06
69145;BME280;56251;50.324;17.574;2022-07-15T05:37:43;102047.77;;;27.00;35.96
69145;BME280;56251;50.324;17.574;2022-07-15T05:39:19;102054.45;;;27.20;34.65
69145;BME280;56251;50.324;17.574;2022-07-15T05:40:50;102054.66;;;27.24;34.21
69145;BME280;56251;50.324;17.574;2022-07-15T05:42:25;102058.06;;;27.38;34.25
69145;BME280;56251;50.324;17.574;2022-07-15T05:43:58;102059.73;;;27.46;33.70
69145;BME280;56251;50.324;17.574;2022-07-15T05:45:32;102061.27;;;27.57;33.26
69145;BME280;56251;50.324;17.574;2022-07-15T05:47:04;102063.84;;;27.98;32.94
69145;BME280;56251;50.324;17.574;2022-07-15T05:48:38;102061.56;;;27.56;32.91
69145;BME280;56251;50.324;17.574;2022-07-15T05:50:13;102072.84;;;27.01;33.38
69145;BME280;56251;50.324;17.574;2022-07-15T05:51:46;102069.34;;;27.03;33.85
69145;BME280;56251;50.324;17.574;2022-07-15T05:53:19;102073.34;;;27.17;33.71
69145;BME280;56251;50.324;17.574;2022-07-15T05:54:52;102069.47;;;27.59;33.59
69145;BME280;56251;50.324;17.574;2022-07-15T05:56:25;102074.45;;;27.56;33.11
69145;BME280;56251;50.324;17.574;2022-07-15T05:57:58;102074.02;;;27.56;33.58
69145;BME280;56251;50.324;17.574;2022-07-15T05:59:32;102076.59;;;27.83;32.96
69145;BME280;56251;50.324;17.574;2022-07-15T06:01:05;102079.75;;;28.00;32.73
69145;BME280;56251;50.324;17.574;2022-07-15T06:02:38;102082.30;;;28.32;32.50
69145;BME280;56251;50.324;17.574;2022-07-15T06:04:12;102082.33;;;28.20;32.38
69145;BME280;56251;50.324;17.574;2022-07-15T06:05:48;102083.48;;;27.88;32.53
69145;BME280;56251;50.324;17.574;2022-07-15T06:07:19;102083.12;;;27.84;32.82
69145;BME280;56251;50.324;17.574;2022-07-15T06:08:55;102085.61;;;28.21;31.78
69145;BME280;56251;50.324;17.574;2022-07-15T06:10:26;102090.61;;;28.09;31.34
69145;BME280;56251;50.324;17.574;2022-07-15T06:12:01;102087.63;;;28.35;31.39
69145;BME280;56251;50.324;17.574;2022-07-15T06:13:33;102090.38;;;28.63;30.83
69145;BME280;56251;50.324;17.574;2022-07-15T06:15:08;102086.26;;;28.95;30.55
69145;BME280;56251;50.324;17.574;2022-07-15T06:16:40;102086.34;;;29.22;29.73
69145;BME280;56251;50.324;17.574;2022-07-15T06:18:16;102087.72;;;29.12;29.30
69145;BME280;56251;50.324;17.574;2022-07-15T06:19:46;102085.92;;;29.09;29.51
69145;BME280;56251;50.324;17.574;2022-07-15T06:21:26;102090.33;;;29.29;28.90
69145;BME280;56251;50.324;17.574;2022-07-15T06:22:53;102096.23;;;28.87;28.37
69145;BME280;56251;50.324;17.574;2022-07-15T06:24:30;102096.66;;;28.62;29.23
69145;BME280;56251;50.324;17.574;2022-07-15T06:25:59;102103.53;;;28.15;29.54
69145;BME280;56251;50.324;17.574;2022-07-15T06:27:43;102097.92;;;28.26;29.60
69145;BME280;56251;50.324;17.574;2022-07-15T06:29:06;102101.31;;;28.16;29.85
69145;BME280;56251;50.324;17.574;2022-07-15T06:30:49;102098.90;;;28.17;30.02
69145;BME280;56251;50.324;17.574;2022-07-15T06:32:14;102097.98;;;28.45;29.60
69145;BME280;56251;50.324;17.574;2022-07-15T06:33:56;102104.85;;;28.68;29.52
69145;BME280;56251;50.324;17.574;2022-07-15T06:35:26;102101.44;;;28.76;29.33
69145;BME280;56251;50.324;17.574;2022-07-15T06:37:04;102103.51;;;28.74;28.95
69145;BME280;56251;50.324;17.574;2022-07-15T06:38:33;102101.59;;;28.91;29.28
69145;BME280;56251;50.324;17.574;2022-07-15T06:40:11;102101.97;;;29.05;29.02
69145;BME280;56251;50.324;17.574;2022-07-15T06:41:39;102101.16;;;28.98;28.90
69145;BME280;56251;50.324;17.574;2022-07-15T06:43:18;102103.38;;;29.03;28.28
69145;BME280;56251;50.324;17.574;2022-07-15T06:44:46;102106.39;;;28.87;28.02
69145;BME280;56251;50.324;17.574;2022-07-15T06:46:29;102112.60;;;28.89;28.48
69145;BME280;56251;50.324;17.574;2022-07-15T06:47:55;102110.28;;;28.90;28.08
69145;BME280;56251;50.324;17.574;2022-07-15T06:49:36;102114.05;;;28.78;28.19
69145;BME280;56251;50.324;17.574;2022-07-15T06:51:03;102115.80;;;28.80;28.05
69145;BME280;56251;50.324;17.574;2022-07-15T06:52:44;102116.82;;;28.92;29.13
69145;BME280;56251;50.324;17.574;2022-07-15T06:54:15;102112.64;;;28.98;27.75
69145;BME280;56251;50.324;17.574;2022-07-15T06:55:51;102120.58;;;29.08;28.36
69145;BME280;56251;50.324;17.574;2022-07-15T06:57:25;102121.02;;;28.88;27.17
69145;BME280;56251;50.324;17.574;2022-07-15T06:58:59;102120.74;;;28.79;28.45
69145;BME280;56251;50.324;17.574;2022-07-15T07:00:32;102115.45;;;28.43;28.75
69145;BME280;56251;50.324;17.574;2022-07-15T07:02:06;102113.48;;;28.51;29.03
69145;BME280;56251;50.324;17.574;2022-07-15T07:03:39;102116.11;;;28.51;28.77
69145;BME280;56251;50.324;17.574;2022-07-15T07:05:13;102115.49;;;28.53;29.39
69145;BME280;56251;50.324;17.574;2022-07-15T07:06:45;102118.17;;;28.51;29.61
69145;BME280;56251;50.324;17.574;2022-07-15T07:08:19;102114.60;;;28.25;29.33
69145;BME280;56251;50.324;17.574;2022-07-15T07:09:52;102105.02;;;28.04;29.91
69145;BME280;56251;50.324;17.574;2022-07-15T07:11:29;102113.41;;;27.75;30.33
69145;BME280;56251;50.324;17.574;2022-07-15T07:13:00;102114.90;;;27.51;30.42
69145;BME280;56251;50.324;17.574;2022-07-15T07:14:36;102108.88;;;27.49;30.83
69145;BME280;56251;50.324;17.574;2022-07-15T07:16:09;102111.84;;;27.69;30.81
69145;BME280;56251;50.324;17.574;2022-07-15T07:17:42;102110.99;;;27.28;30.78
69145;BME280;56251;50.324;17.574;2022-07-15T07:19:17;102114.83;;;27.45;32.21
69145;BME280;56251;50.324;17.574;2022-07-15T07:20:56;102110.40;;;27.45;31.42
69145;BME280;56251;50.324;17.574;2022-07-15T07:22:27;102108.12;;;27.73;30.92
69145;BME280;56251;50.324;17.574;2022-07-15T07:26:59;102116.42;;;27.74;30.83
69145;BME280;56251;50.324;17.574;2022-07-15T07:27:07;102114.57;;;27.78;30.89
69145;BME280;56251;50.324;17.574;2022-07-15T07:30:07;102115.92;;;27.99;31.43
69145;BME280;56251;50.324;17.574;2022-07-15T07:30:14;102116.44;;;27.99;31.25
69145;BME280;56251;50.324;17.574;2022-07-15T07:33:13;102118.57;;;27.83;31.74
69145;BME280;56251;50.324;17.574;2022-07-15T07:33:21;102117.42;;;27.80;31.96
69145;BME280;56251;50.324;17.574;2022-07-15T07:36:19;102127.32;;;27.77;30.99
69145;BME280;56251;50.324;17.574;2022-07-15T07:36:29;102126.66;;;27.83;30.98
69145;BME280;56251;50.324;17.574;2022-07-15T07:39:29;102123.09;;;27.34;31.35
69145;BME280;56251;50.324;17.574;2022-07-15T07:39:43;102124.04;;;27.38;31.39
69145;BME280;56251;50.324;17.574;2022-07-15T07:42:36;102127.58;;;27.20;31.99
69145;BME280;56251;50.324;17.574;2022-07-15T07:42:51;102127.47;;;27.24;32.07
69145;BME280;56251;50.324;17.574;2022-07-15T07:45:46;102124.79;;;26.98;31.60
69145;BME280;56251;50.324;17.574;2022-07-15T07:45:58;102125.31;;;27.00;31.54
69145;BME280;56251;50.324;17.574;2022-07-15T07:48:53;102119.17;;;26.92;32.70
69145;BME280;56251;50.324;17.574;2022-07-15T07:49:05;102124.09;;;26.96;32.62
69145;BME280;56251;50.324;17.574;2022-07-15T07:52:02;102116.64;;;26.92;32.16
69145;BME280;56251;50.324;17.574;2022-07-15T07:52:11;102123.24;;;26.91;32.18
69145;BME280;56251;50.324;17.574;2022-07-15T07:55:09;102121.02;;;26.88;33.18
69145;BME280;56251;50.324;17.574;2022-07-15T07:55:18;102116.66;;;26.84;33.13
69145;BME280;56251;50.324;17.574;2022-07-15T07:58:19;102118.75;;;26.31;33.38
69145;BME280;56251;50.324;17.574;2022-07-15T07:58:29;102120.87;;;26.28;33.46
69145;BME280;56251;50.324;17.574;2022-07-15T08:01:34;102116.67;;;26.29;33.55
69145;BME280;56251;50.324;17.574;2022-07-15T08:02:03;102116.89;;;26.26;33.09
69145;BME280;56251;50.324;17.574;2022-07-15T08:04:56;102121.91;;;26.05;33.46
69145;BME280;56251;50.324;17.574;2022-07-15T08:05:14;102113.07;;;25.99;33.58
69145;BME280;56251;50.324;17.574;2022-07-15T08:08:15;102119.38;;;25.95;33.68